createdAt,value
2017-10-30T00:00:30.843Z,6.97
2017-10-30T00:01:31.248Z,7.06
2017-10-30T00:02:31.671Z,7.07
2017-10-30T00:03:32.098Z,7.05
2017-10-30T00:04:32.516Z,7.03
2017-10-30T00:05:32.936Z,6.88
2017-10-30T00:06:33.359Z,6.96
2017-10-30T00:07:33.778Z,7.03
2017-10-30T00:08:34.204Z,6.89
2017-10-30T00:09:34.631Z,6.89
2017-10-30T00:10:35.068Z,6.88
2017-10-30T00:11:35.483Z,6.97
2017-10-30T00:12:35.899Z,6.99
2017-10-30T00:13:36.320Z,7.00
2017-10-30T00:14:36.749Z,7.00
2017-10-30T00:15:37.171Z,7.02
2017-10-30T00:16:37.589Z,6.96
2017-10-30T00:17:38.017Z,6.97
2017-10-30T00:18:38.443Z,6.89
2017-10-30T00:19:38.861Z,6.88
2017-10-30T00:20:39.277Z,6.89
2017-10-30T00:21:39.705Z,6.96
2017-10-30T00:22:40.125Z,6.99
2017-10-30T00:23:40.559Z,6.99
2017-10-30T00:24:40.980Z,6.92
2017-10-30T00:25:41.413Z,6.84
2017-10-30T00:26:41.829Z,6.87
2017-10-30T00:27:42.254Z,6.99
2017-10-30T00:28:42.672Z,6.88
2017-10-30T00:29:43.089Z,6.84
2017-10-30T00:30:43.513Z,6.87
2017-10-30T00:31:43.931Z,6.84
2017-10-30T00:32:44.356Z,6.77
2017-10-30T00:33:44.776Z,6.78
2017-10-30T00:34:45.212Z,6.78
2017-10-30T00:35:45.623Z,6.79
2017-10-30T00:36:46.051Z,6.84
2017-10-30T00:37:46.474Z,6.81
2017-10-30T00:38:46.924Z,6.92
2017-10-30T00:39:47.329Z,6.82
2017-10-30T00:40:47.753Z,6.77
2017-10-30T00:41:48.161Z,6.82
2017-10-30T00:42:48.589Z,6.85
2017-10-30T00:43:49.006Z,6.84
2017-10-30T00:44:49.438Z,6.81
2017-10-30T00:45:49.865Z,6.84
2017-10-30T00:46:50.276Z,6.88
2017-10-30T00:47:50.700Z,6.75
2017-10-30T00:48:51.129Z,6.72
2017-10-30T00:49:51.545Z,6.78
2017-10-30T00:50:52.902Z,6.82
2017-10-30T00:51:52.387Z,6.82
2017-10-30T00:52:52.813Z,6.75
2017-10-30T00:53:53.241Z,6.77
2017-10-30T00:54:53.670Z,6.78
2017-10-30T00:55:54.085Z,6.79
2017-10-30T00:56:54.508Z,6.78
2017-10-30T00:57:54.928Z,6.85
2017-10-30T00:58:55.365Z,6.85
2017-10-30T00:59:55.773Z,6.81
2017-10-30T01:00:56.203Z,6.81
2017-10-30T01:01:56.619Z,6.81
2017-10-30T01:02:57.045Z,6.89
2017-10-30T01:03:57.462Z,6.78
2017-10-30T01:04:57.885Z,6.79
2017-10-30T01:05:58.316Z,6.66
2017-10-30T01:06:58.738Z,6.70
2017-10-30T01:07:59.149Z,6.74
2017-10-30T01:08:59.584Z,6.70
2017-10-30T01:10:00.008Z,6.66
2017-10-30T01:11:00.434Z,6.67
2017-10-30T01:12:00.855Z,6.66
2017-10-30T01:13:01.270Z,6.75
2017-10-30T01:14:01.690Z,6.74
2017-10-30T01:15:02.115Z,6.66
2017-10-30T01:16:02.536Z,6.72
2017-10-30T01:17:02.969Z,6.54
2017-10-30T01:18:03.383Z,6.67
2017-10-30T01:19:03.802Z,6.74
2017-10-30T01:20:04.231Z,6.64
2017-10-30T01:21:04.649Z,6.59
2017-10-30T01:22:05.078Z,6.62
2017-10-30T01:23:05.509Z,6.59
2017-10-30T01:24:05.917Z,6.54
2017-10-30T01:25:06.346Z,6.56
2017-10-30T01:26:06.762Z,6.52
2017-10-30T01:27:07.182Z,6.51
2017-10-30T01:28:07.606Z,6.51
2017-10-30T01:29:08.045Z,6.41
2017-10-30T01:30:08.458Z,6.44
2017-10-30T01:31:08.884Z,6.57
2017-10-30T01:32:09.314Z,6.57
2017-10-30T01:33:09.726Z,6.52
2017-10-30T01:34:10.142Z,6.42
2017-10-30T01:35:10.577Z,6.39
2017-10-30T01:36:10.993Z,6.44
2017-10-30T01:37:11.412Z,6.51
2017-10-30T01:38:11.834Z,6.41
2017-10-30T01:39:12.254Z,6.35
2017-10-30T01:40:12.683Z,6.39
2017-10-30T01:41:13.102Z,6.46
2017-10-30T01:42:13.522Z,6.45
2017-10-30T01:43:13.953Z,6.42
2017-10-30T01:44:14.374Z,6.46
2017-10-30T01:45:14.800Z,6.44
2017-10-30T01:46:15.215Z,6.48
2017-10-30T01:47:15.653Z,6.30
2017-10-30T01:48:16.058Z,6.31
2017-10-30T01:49:16.485Z,6.39
2017-10-30T01:50:16.908Z,6.33
2017-10-30T01:51:17.336Z,6.30
2017-10-30T01:52:17.754Z,6.31
2017-10-30T01:53:18.179Z,6.42
2017-10-30T01:54:18.601Z,6.44
2017-10-30T01:55:19.024Z,6.38
2017-10-30T01:56:19.444Z,6.27
2017-10-30T01:57:19.862Z,6.33
2017-10-30T01:58:20.289Z,6.39
2017-10-30T01:59:20.718Z,6.33
2017-10-30T02:00:21.140Z,6.33
2017-10-30T02:01:21.556Z,6.31
2017-10-30T02:02:21.982Z,6.28
2017-10-30T02:03:22.399Z,6.33
2017-10-30T02:04:22.822Z,6.35
2017-10-30T02:05:23.252Z,6.30
2017-10-30T02:06:23.673Z,6.20
2017-10-30T02:07:24.091Z,6.24
2017-10-30T02:08:24.512Z,6.26
2017-10-30T02:09:24.934Z,6.28
2017-10-30T02:10:25.364Z,6.24
2017-10-30T02:11:25.783Z,6.31
2017-10-30T02:12:26.204Z,6.22
2017-10-30T02:13:26.626Z,6.19
2017-10-30T02:14:27.046Z,6.28
2017-10-30T02:15:27.471Z,6.16
2017-10-30T02:16:27.897Z,6.27
2017-10-30T02:17:28.321Z,6.28
2017-10-30T02:18:28.745Z,6.33
2017-10-30T02:19:29.160Z,6.28
2017-10-30T02:20:29.582Z,6.30
2017-10-30T02:21:30.013Z,6.20
2017-10-30T02:22:30.426Z,6.16
2017-10-30T02:23:30.852Z,6.24
2017-10-30T02:24:31.283Z,6.28
2017-10-30T02:25:31.711Z,6.31
2017-10-30T02:26:32.141Z,6.33
2017-10-30T02:27:32.548Z,6.28
2017-10-30T02:28:32.969Z,6.24
2017-10-30T02:29:33.389Z,6.17
2017-10-30T02:30:33.807Z,6.19
2017-10-30T02:31:34.229Z,6.24
2017-10-30T02:32:34.670Z,6.31
2017-10-30T02:33:35.081Z,6.19
2017-10-30T02:34:35.503Z,6.22
2017-10-30T02:35:35.925Z,6.17
2017-10-30T02:36:36.341Z,6.17
2017-10-30T02:37:36.765Z,6.20
2017-10-30T02:38:37.191Z,6.20
2017-10-30T02:39:37.615Z,6.17
2017-10-30T02:40:38.045Z,6.24
2017-10-30T02:41:38.456Z,6.14
2017-10-30T02:42:38.885Z,6.11
2017-10-30T02:43:39.308Z,6.19
2017-10-30T02:44:39.724Z,6.14
2017-10-30T02:45:40.150Z,6.14
2017-10-30T02:46:40.565Z,6.02
2017-10-30T02:47:40.995Z,6.14
2017-10-30T02:48:41.411Z,6.09
2017-10-30T02:49:41.841Z,6.17
2017-10-30T02:50:42.259Z,6.09
2017-10-30T02:51:42.680Z,6.11
2017-10-30T02:52:43.100Z,6.17
2017-10-30T02:53:43.541Z,6.07
2017-10-30T02:54:43.953Z,6.17
2017-10-30T02:55:44.373Z,6.17
2017-10-30T02:56:44.791Z,6.19
2017-10-30T02:57:45.213Z,6.14
2017-10-30T02:58:45.638Z,6.14
2017-10-30T02:59:46.059Z,6.16
2017-10-30T03:00:46.493Z,6.08
2017-10-30T03:01:46.906Z,6.22
2017-10-30T03:02:47.326Z,6.09
2017-10-30T03:03:47.747Z,6.09
2017-10-30T03:04:48.172Z,6.11
2017-10-30T03:05:48.609Z,6.12
2017-10-30T03:06:49.028Z,6.08
2017-10-30T03:07:49.442Z,6.14
2017-10-30T03:08:49.858Z,6.12
2017-10-30T03:09:50.282Z,6.08
2017-10-30T03:10:50.705Z,6.14
2017-10-30T03:11:51.132Z,6.08
2017-10-30T03:12:51.547Z,6.12
2017-10-30T03:13:51.972Z,6.08
2017-10-30T03:14:52.396Z,6.07
2017-10-30T03:15:52.828Z,6.11
2017-10-30T03:16:53.242Z,6.11
2017-10-30T03:17:53.666Z,6.07
2017-10-30T03:18:54.092Z,6.11
2017-10-30T03:19:54.510Z,6.04
2017-10-30T03:20:54.932Z,6.09
2017-10-30T03:21:55.351Z,6.14
2017-10-30T03:22:55.784Z,6.11
2017-10-30T03:23:56.197Z,6.12
2017-10-30T03:24:56.617Z,6.09
2017-10-30T03:25:57.041Z,6.12
2017-10-30T03:26:57.464Z,6.12
2017-10-30T03:27:57.889Z,6.22
2017-10-30T03:28:58.309Z,6.04
2017-10-30T03:29:58.726Z,6.09
2017-10-30T03:30:59.155Z,6.09
2017-10-30T03:31:59.574Z,6.12
2017-10-30T03:33:00.003Z,6.14
2017-10-30T03:34:00.426Z,6.07
2017-10-30T03:35:00.860Z,6.17
2017-10-30T03:36:01.268Z,6.02
2017-10-30T03:37:01.697Z,6.09
2017-10-30T03:38:02.110Z,6.12
2017-10-30T03:39:02.537Z,6.11
2017-10-30T03:40:02.955Z,6.17
2017-10-30T03:41:03.384Z,6.09
2017-10-30T03:42:03.797Z,6.16
2017-10-30T03:43:04.218Z,6.17
2017-10-30T03:44:04.643Z,6.16
2017-10-30T03:45:05.070Z,6.22
2017-10-30T03:46:05.488Z,6.17
2017-10-30T03:47:05.916Z,6.19
2017-10-30T03:48:06.333Z,6.20
2017-10-30T03:49:06.764Z,6.16
2017-10-30T03:50:07.181Z,6.14
2017-10-30T03:51:07.596Z,6.19
2017-10-30T03:52:08.026Z,6.16
2017-10-30T03:53:08.440Z,6.12
2017-10-30T03:54:08.866Z,6.16
2017-10-30T03:55:09.929Z,6.17
2017-10-30T03:56:09.706Z,6.09
2017-10-30T03:57:10.139Z,6.08
2017-10-30T03:58:10.554Z,6.08
2017-10-30T03:59:10.976Z,6.17
2017-10-30T04:00:11.404Z,6.14
2017-10-30T04:01:11.826Z,6.12
2017-10-30T04:02:12.251Z,6.07
2017-10-30T04:03:12.669Z,6.09
2017-10-30T04:04:13.090Z,6.17
2017-10-30T04:05:13.516Z,6.16
2017-10-30T04:06:13.951Z,6.14
2017-10-30T04:07:14.365Z,6.14
2017-10-30T04:08:14.779Z,6.17
2017-10-30T04:09:15.201Z,6.20
2017-10-30T04:10:15.627Z,6.22
2017-10-30T04:11:16.048Z,6.22
2017-10-30T04:12:16.480Z,6.19
2017-10-30T04:13:16.890Z,6.16
2017-10-30T04:14:17.314Z,6.12
2017-10-30T04:15:17.741Z,6.19
2017-10-30T04:16:18.166Z,6.17
2017-10-30T04:17:18.577Z,6.16
2017-10-30T04:18:19.007Z,6.12
2017-10-30T04:19:19.428Z,6.17
2017-10-30T04:20:19.845Z,6.09
2017-10-30T04:21:20.271Z,6.14
2017-10-30T04:22:20.697Z,6.24
2017-10-30T04:23:21.119Z,6.24
2017-10-30T04:24:21.537Z,6.14
2017-10-30T04:25:21.958Z,6.19
2017-10-30T04:26:22.378Z,6.17
2017-10-30T04:27:22.820Z,6.14
2017-10-30T04:28:23.229Z,6.26
2017-10-30T04:29:23.655Z,6.22
2017-10-30T04:30:24.074Z,6.24
2017-10-30T04:31:24.509Z,6.24
2017-10-30T04:32:24.916Z,6.20
2017-10-30T04:33:25.341Z,6.30
2017-10-30T04:34:25.758Z,6.27
2017-10-30T04:35:26.219Z,6.31
2017-10-30T04:36:26.618Z,6.36
2017-10-30T04:37:27.028Z,6.35
2017-10-30T04:38:27.448Z,6.42
2017-10-30T04:39:27.869Z,6.48
2017-10-30T04:40:28.301Z,6.49
2017-10-30T04:41:28.717Z,6.41
2017-10-30T04:42:29.137Z,6.41
2017-10-30T04:43:29.592Z,6.41
2017-10-30T04:44:29.984Z,6.45
2017-10-30T04:45:30.416Z,6.45
2017-10-30T04:46:30.834Z,6.49
2017-10-30T04:47:31.252Z,6.31
2017-10-30T04:48:31.683Z,6.38
2017-10-30T04:49:32.098Z,6.38
2017-10-30T04:50:32.518Z,6.48
2017-10-30T04:51:32.941Z,6.28
2017-10-30T04:52:33.365Z,6.30
2017-10-30T04:53:33.781Z,6.33
2017-10-30T04:54:34.206Z,6.30
2017-10-30T04:55:34.630Z,6.31
2017-10-30T04:56:35.047Z,6.24
2017-10-30T04:57:35.479Z,6.28
2017-10-30T04:58:35.896Z,6.30
2017-10-30T04:59:36.318Z,6.28
2017-10-30T05:00:36.746Z,6.33
2017-10-30T05:01:37.160Z,6.33
2017-10-30T05:02:37.604Z,6.30
2017-10-30T05:03:38.015Z,6.17
2017-10-30T05:04:38.433Z,6.20
2017-10-30T05:05:38.855Z,6.22
2017-10-30T05:06:39.271Z,6.16
2017-10-30T05:07:39.705Z,6.20
2017-10-30T05:08:40.126Z,6.16
2017-10-30T05:09:40.545Z,6.17
2017-10-30T05:10:40.965Z,6.19
2017-10-30T05:11:41.387Z,6.19
2017-10-30T05:12:41.814Z,6.17
2017-10-30T05:13:42.241Z,6.19
2017-10-30T05:14:42.652Z,6.17
2017-10-30T05:15:43.077Z,6.14
2017-10-30T05:16:43.497Z,6.14
2017-10-30T05:17:43.921Z,6.17
2017-10-30T05:18:44.341Z,6.22
2017-10-30T05:19:44.772Z,6.12
2017-10-30T05:20:45.190Z,6.05
2017-10-30T05:21:45.615Z,6.20
2017-10-30T05:22:46.035Z,6.12
2017-10-30T05:23:46.457Z,6.14
2017-10-30T05:24:46.877Z,6.17
2017-10-30T05:25:47.297Z,6.08
2017-10-30T05:26:47.725Z,6.24
2017-10-30T05:27:48.145Z,6.11
2017-10-30T05:28:48.581Z,6.07
2017-10-30T05:29:48.992Z,6.17
2017-10-30T05:30:49.410Z,6.08
2017-10-30T05:31:49.838Z,6.08
2017-10-30T05:32:50.262Z,6.04
2017-10-30T05:33:50.680Z,6.08
2017-10-30T05:34:51.102Z,6.09
2017-10-30T05:35:51.523Z,6.02
2017-10-30T05:36:51.960Z,6.07
2017-10-30T05:37:52.370Z,6.05
2017-10-30T05:38:52.800Z,6.07
2017-10-30T05:39:53.218Z,6.04
2017-10-30T05:40:53.632Z,6.09
2017-10-30T05:41:54.056Z,6.07
2017-10-30T05:42:54.488Z,6.04
2017-10-30T05:43:54.905Z,6.11
2017-10-30T05:44:55.321Z,6.14
2017-10-30T05:45:55.761Z,6.09
2017-10-30T05:46:56.167Z,6.08
2017-10-30T05:47:56.610Z,6.09
2017-10-30T05:48:57.010Z,6.11
2017-10-30T05:49:57.433Z,6.08
2017-10-30T05:50:57.859Z,6.08
2017-10-30T05:51:58.281Z,6.09
2017-10-30T05:52:58.704Z,6.04
2017-10-30T05:53:59.136Z,6.11
2017-10-30T05:54:59.549Z,6.05
2017-10-30T05:55:59.972Z,6.08
2017-10-30T05:57:00.392Z,6.05
2017-10-30T05:58:00.811Z,6.08
2017-10-30T05:59:01.236Z,6.04
2017-10-30T06:00:01.655Z,6.08
2017-10-30T06:01:02.089Z,6.09
2017-10-30T06:02:02.502Z,6.11
2017-10-30T06:03:02.923Z,6.07
2017-10-30T06:04:03.349Z,6.14
2017-10-30T06:05:03.780Z,6.09
2017-10-30T06:06:04.191Z,6.09
2017-10-30T06:07:04.611Z,6.09
2017-10-30T06:08:05.036Z,6.09
2017-10-30T06:09:05.455Z,6.14
2017-10-30T06:10:05.877Z,6.09
2017-10-30T06:11:06.322Z,6.05
2017-10-30T06:12:06.730Z,6.07
2017-10-30T06:13:07.148Z,6.14
2017-10-30T06:14:07.569Z,6.04
2017-10-30T06:15:07.995Z,6.07
2017-10-30T06:16:08.414Z,6.08
2017-10-30T06:17:08.839Z,6.11
2017-10-30T06:18:09.263Z,6.07
2017-10-30T06:19:09.682Z,6.11
2017-10-30T06:20:10.106Z,6.09
2017-10-30T06:21:10.525Z,5.99
2017-10-30T06:22:10.952Z,6.05
2017-10-30T06:23:11.387Z,6.05
2017-10-30T06:24:11.792Z,6.16
2017-10-30T06:25:12.214Z,6.07
2017-10-30T06:26:12.635Z,6.07
2017-10-30T06:27:13.056Z,6.05
2017-10-30T06:28:13.475Z,6.04
2017-10-30T06:29:13.910Z,6.04
2017-10-30T06:30:14.327Z,6.04
2017-10-30T06:31:14.750Z,5.94
2017-10-30T06:32:15.171Z,5.94
2017-10-30T06:33:15.594Z,5.94
2017-10-30T06:34:16.020Z,6.07
2017-10-30T06:35:16.441Z,6.04
2017-10-30T06:36:16.860Z,6.04
2017-10-30T06:37:17.319Z,5.97
2017-10-30T06:38:17.739Z,6.08
2017-10-30T06:39:18.130Z,5.98
2017-10-30T06:40:18.549Z,5.91
2017-10-30T06:41:18.972Z,6.07
2017-10-30T06:42:19.400Z,6.02
2017-10-30T06:43:19.817Z,5.97
2017-10-30T06:44:20.238Z,5.94
2017-10-30T06:45:20.663Z,5.98
2017-10-30T06:46:21.102Z,6.04
2017-10-30T06:47:21.509Z,5.99
2017-10-30T06:48:21.929Z,5.98
2017-10-30T06:49:22.354Z,5.97
2017-10-30T06:50:22.786Z,6.04
2017-10-30T06:51:23.199Z,5.98
2017-10-30T06:52:23.626Z,6.01
2017-10-30T06:53:24.040Z,6.01
2017-10-30T06:54:24.459Z,5.97
2017-10-30T06:55:24.889Z,6.01
2017-10-30T06:56:25.313Z,6.09
2017-10-30T06:57:25.733Z,6.05
2017-10-30T06:58:26.152Z,6.02
2017-10-30T06:59:26.575Z,6.09
2017-10-30T07:00:26.995Z,6.05
2017-10-30T07:01:27.421Z,6.11
2017-10-30T07:02:27.843Z,6.09
2017-10-30T07:03:28.266Z,6.09
2017-10-30T07:04:28.690Z,6.09
2017-10-30T07:05:29.113Z,6.14
2017-10-30T07:06:29.535Z,6.17
2017-10-30T07:07:29.959Z,6.12
2017-10-30T07:08:30.378Z,6.19
2017-10-30T07:09:30.802Z,6.16
2017-10-30T07:10:31.227Z,6.14
2017-10-30T07:11:31.652Z,6.19
2017-10-30T07:12:32.072Z,6.27
2017-10-30T07:13:32.490Z,6.19
2017-10-30T07:14:32.917Z,6.24
2017-10-30T07:15:33.337Z,6.31
2017-10-30T07:16:33.754Z,6.28
2017-10-30T07:17:34.195Z,6.30
2017-10-30T07:18:34.619Z,6.33
2017-10-30T07:19:35.040Z,6.33
2017-10-30T07:20:35.450Z,6.44
2017-10-30T07:21:35.871Z,6.41
2017-10-30T07:22:36.295Z,6.42
2017-10-30T07:23:36.715Z,6.41
2017-10-30T07:24:37.138Z,6.41
2017-10-30T07:25:37.561Z,6.42
2017-10-30T07:26:37.983Z,6.51
2017-10-30T07:27:38.406Z,6.52
2017-10-30T07:28:38.833Z,6.54
2017-10-30T07:29:39.255Z,6.51
2017-10-30T07:30:39.675Z,6.59
2017-10-30T07:31:40.098Z,6.67
2017-10-30T07:32:40.518Z,6.64
2017-10-30T07:33:40.951Z,6.66
2017-10-30T07:34:41.370Z,6.67
2017-10-30T07:35:41.789Z,6.77
2017-10-30T07:36:42.213Z,6.84
2017-10-30T07:37:42.636Z,6.75
2017-10-30T07:38:43.066Z,6.75
2017-10-30T07:39:43.505Z,6.82
2017-10-30T07:40:43.923Z,6.84
2017-10-30T07:41:44.338Z,6.85
2017-10-30T07:42:44.771Z,6.89
2017-10-30T07:43:45.185Z,6.97
2017-10-30T07:44:45.640Z,6.89
2017-10-30T07:45:46.034Z,6.95
2017-10-30T07:46:46.453Z,6.97
2017-10-30T07:47:46.880Z,7.02
2017-10-30T07:48:47.298Z,6.99
2017-10-30T07:49:47.735Z,7.00
2017-10-30T07:50:48.160Z,7.05
2017-10-30T07:51:48.588Z,6.99
2017-10-30T07:52:48.985Z,7.10
2017-10-30T07:53:49.431Z,7.23
2017-10-30T07:54:49.845Z,7.11
2017-10-30T07:55:50.285Z,7.20
2017-10-30T07:56:50.699Z,7.17
2017-10-30T07:57:51.105Z,7.17
2017-10-30T07:58:51.540Z,7.17
2017-10-30T07:59:51.983Z,7.31
2017-10-30T08:00:52.397Z,7.29
2017-10-30T08:01:52.828Z,7.35
2017-10-30T08:02:53.233Z,7.33
2017-10-30T08:03:53.646Z,7.32
2017-10-30T08:04:54.084Z,7.36
2017-10-30T08:05:54.519Z,7.32
2017-10-30T08:06:54.941Z,7.36
2017-10-30T08:07:55.349Z,7.43
2017-10-30T08:08:55.788Z,7.40
2017-10-30T08:09:56.195Z,7.36
2017-10-30T08:10:56.605Z,7.50
2017-10-30T08:11:57.070Z,7.43
2017-10-30T08:12:57.468Z,7.50
2017-10-30T08:13:57.911Z,7.51
2017-10-30T08:14:58.328Z,7.56
2017-10-30T08:15:58.739Z,7.58
2017-10-30T08:16:59.158Z,7.48
2017-10-30T08:17:59.575Z,7.51
2017-10-30T08:18:59.996Z,7.58
2017-10-30T08:20:00.438Z,7.63
2017-10-30T08:21:00.845Z,7.70
2017-10-30T08:22:01.271Z,7.67
2017-10-30T08:23:01.699Z,7.73
2017-10-30T08:24:02.115Z,7.61
2017-10-30T08:25:02.541Z,7.63
2017-10-30T08:26:02.963Z,7.60
2017-10-30T08:27:03.402Z,7.70
2017-10-30T08:28:03.815Z,7.73
2017-10-30T08:29:04.237Z,7.75
2017-10-30T08:30:04.657Z,7.63
2017-10-30T08:31:05.084Z,7.66
2017-10-30T08:32:05.514Z,7.67
2017-10-30T08:33:05.934Z,7.76
2017-10-30T08:34:06.355Z,7.93
2017-10-30T08:35:06.779Z,7.82
2017-10-30T08:36:07.210Z,7.67
2017-10-30T08:37:07.635Z,8.05
2017-10-30T08:38:08.055Z,8.05
2017-10-30T08:39:08.480Z,7.94
2017-10-30T08:40:08.903Z,8.08
2017-10-30T08:41:09.327Z,8.08
2017-10-30T08:42:09.752Z,8.13
2017-10-30T08:43:10.180Z,8.26
2017-10-30T08:44:10.595Z,8.31
2017-10-30T08:45:11.030Z,8.46
2017-10-30T08:46:11.448Z,8.85
2017-10-30T08:47:11.873Z,9.02
2017-10-30T08:48:12.299Z,8.82
2017-10-30T08:49:12.726Z,9.00
2017-10-30T08:50:13.148Z,9.04
2017-10-30T08:51:13.580Z,9.39
2017-10-30T08:52:14.003Z,9.68
2017-10-30T08:53:14.432Z,9.77
2017-10-30T08:54:14.866Z,9.66
2017-10-30T08:55:15.305Z,9.58
2017-10-30T08:56:15.716Z,9.79
2017-10-30T08:57:16.146Z,9.92
2017-10-30T08:58:16.582Z,9.95
2017-10-30T08:59:17.016Z,10.44
2017-10-30T09:00:17.435Z,10.35
2017-10-30T09:01:17.866Z,10.75
2017-10-30T09:02:18.299Z,11.12
2017-10-30T09:03:18.728Z,10.26
2017-10-30T09:04:19.183Z,9.84
2017-10-30T09:05:19.590Z,9.83
2017-10-30T09:06:20.024Z,10.04
2017-10-30T09:07:20.454Z,10.28
2017-10-30T09:08:20.892Z,10.41
2017-10-30T09:09:22.076Z,10.41
2017-10-30T09:10:21.761Z,10.89
2017-10-30T09:11:22.190Z,10.93
2017-10-30T09:12:22.621Z,10.94
2017-10-30T09:13:23.056Z,10.38
2017-10-30T09:14:23.491Z,10.71
2017-10-30T09:15:23.962Z,10.72
2017-10-30T09:16:24.362Z,10.76
2017-10-30T09:17:24.795Z,10.49
2017-10-30T09:18:25.237Z,10.40
2017-10-30T09:19:25.674Z,10.72
2017-10-30T09:20:26.113Z,11.18
2017-10-30T09:21:26.545Z,10.72
2017-10-30T09:22:26.980Z,10.75
2017-10-30T09:23:27.420Z,10.05
2017-10-30T09:25:28.285Z,11.10
2017-10-30T09:26:28.736Z,10.82
2017-10-30T09:27:29.152Z,10.94
2017-10-30T09:28:29.603Z,10.72
2017-10-30T09:29:30.030Z,11.69
2017-10-30T09:30:30.488Z,11.62
2017-10-30T09:31:30.905Z,10.99
2017-10-30T09:32:31.343Z,10.67
2017-10-30T09:33:31.777Z,10.96
2017-10-30T09:34:32.216Z,11.70
2017-10-30T09:35:32.659Z,11.23
2017-10-30T09:36:33.095Z,11.23
2017-10-30T09:37:33.527Z,11.78
2017-10-30T09:38:33.963Z,11.55
2017-10-30T09:39:34.400Z,12.24
2017-10-30T09:40:41.593Z,12.42
2017-10-30T09:41:35.275Z,11.07
2017-10-30T09:42:35.711Z,11.19
2017-10-30T09:43:36.153Z,11.48
2017-10-30T09:44:36.591Z,11.19
2017-10-30T09:45:37.032Z,11.33
2017-10-30T09:46:37.469Z,11.47
2017-10-30T09:47:37.905Z,11.25
2017-10-30T09:48:38.359Z,11.70
2017-10-30T09:49:38.783Z,12.06
2017-10-30T09:50:39.236Z,11.12
2017-10-30T09:51:39.660Z,11.05
2017-10-30T09:52:40.114Z,11.11
2017-10-30T09:53:40.545Z,11.17
2017-10-30T09:54:40.975Z,11.18
2017-10-30T09:55:41.414Z,11.43
2017-10-30T09:56:41.869Z,11.43
2017-10-30T09:57:42.288Z,11.52
2017-10-30T09:58:42.730Z,11.29
2017-10-30T09:59:43.166Z,12.04
2017-10-30T10:00:43.653Z,12.24
2017-10-30T10:01:44.051Z,12.15
2017-10-30T10:02:44.481Z,11.55
2017-10-30T10:03:44.915Z,11.68
2017-10-30T10:04:45.360Z,11.90
2017-10-30T10:05:45.799Z,11.88
2017-10-30T10:06:46.240Z,11.36
2017-10-30T10:07:46.682Z,11.22
2017-10-30T10:08:47.116Z,12.02
2017-10-30T10:09:47.557Z,12.39
2017-10-30T10:10:48.011Z,12.43
2017-10-30T10:11:48.437Z,11.95
2017-10-30T10:12:48.867Z,12.00
2017-10-30T10:13:49.314Z,12.36
2017-10-30T10:14:49.753Z,11.69
2017-10-30T10:15:50.191Z,12.50
2017-10-30T10:16:50.633Z,13.27
2017-10-30T10:17:51.084Z,12.43
2017-10-30T10:18:51.514Z,12.20
2017-10-30T10:19:51.952Z,12.35
2017-10-30T10:20:52.396Z,11.99
2017-10-30T10:21:52.833Z,11.43
2017-10-30T10:22:53.276Z,11.95
2017-10-30T10:23:53.711Z,12.09
2017-10-30T10:24:54.165Z,12.24
2017-10-30T10:25:54.593Z,10.96
2017-10-30T10:26:55.033Z,11.43
2017-10-30T10:27:55.478Z,11.73
2017-10-30T10:28:55.922Z,11.94
2017-10-30T10:29:56.355Z,12.12
2017-10-30T10:30:56.792Z,12.79
2017-10-30T10:31:57.235Z,12.32
2017-10-30T10:32:57.672Z,11.69
2017-10-30T10:33:58.113Z,12.24
2017-10-30T10:34:58.555Z,11.60
2017-10-30T10:35:58.990Z,11.55
2017-10-30T10:36:59.427Z,11.60
2017-10-30T10:37:59.872Z,11.70
2017-10-30T10:39:00.307Z,12.24
2017-10-30T10:40:00.751Z,12.64
2017-10-30T10:41:01.187Z,12.21
2017-10-30T10:42:01.637Z,12.43
2017-10-30T10:43:02.070Z,12.64
2017-10-30T10:44:02.508Z,12.18
2017-10-30T10:45:02.947Z,11.94
2017-10-30T10:46:03.387Z,11.94
2017-10-30T10:47:03.838Z,11.91
2017-10-30T10:48:04.270Z,12.20
2017-10-30T10:49:04.719Z,12.95
2017-10-30T10:50:05.148Z,13.28
2017-10-30T10:51:06.548Z,12.68
2017-10-30T10:52:06.024Z,11.83
2017-10-30T10:53:06.482Z,11.86
2017-10-30T10:54:06.915Z,11.62
2017-10-30T10:55:07.351Z,12.07
2017-10-30T10:56:07.792Z,11.95
2017-10-30T10:57:08.242Z,12.09
2017-10-30T10:58:08.683Z,12.24
2017-10-30T10:59:09.119Z,12.21
2017-10-30T11:00:09.557Z,12.43
2017-10-30T11:01:09.999Z,12.85
2017-10-30T11:02:10.441Z,12.64
2017-10-30T11:03:10.874Z,12.55
2017-10-30T11:04:11.318Z,11.45
2017-10-30T11:05:11.759Z,11.45
2017-10-30T11:06:12.202Z,11.51
2017-10-30T11:07:12.645Z,11.10
2017-10-30T11:08:13.076Z,11.10
2017-10-30T11:09:13.518Z,11.86
2017-10-30T11:10:13.959Z,12.21
2017-10-30T11:11:14.401Z,13.04
2017-10-30T11:12:14.858Z,12.09
2017-10-30T11:13:15.292Z,11.81
2017-10-30T11:14:15.720Z,12.03
2017-10-30T11:15:16.165Z,11.68
2017-10-30T11:16:16.595Z,11.99
2017-10-30T11:17:17.042Z,13.13
2017-10-30T11:18:17.480Z,12.42
2017-10-30T11:19:17.922Z,12.04
2017-10-30T11:20:18.365Z,12.53
2017-10-30T11:21:18.804Z,12.45
2017-10-30T11:22:19.242Z,12.79
2017-10-30T11:23:19.686Z,12.09
2017-10-30T11:24:20.120Z,12.17
2017-10-30T11:25:20.571Z,12.17
2017-10-30T11:26:21.005Z,12.32
2017-10-30T11:27:21.442Z,12.24
2017-10-30T11:28:21.885Z,11.50
2017-10-30T11:29:22.317Z,10.87
2017-10-30T11:30:22.755Z,10.90
2017-10-30T11:31:23.190Z,10.68
2017-10-30T11:32:23.628Z,10.37
2017-10-30T11:33:24.059Z,10.59
2017-10-30T11:34:24.510Z,10.46
2017-10-30T11:35:24.939Z,10.67
2017-10-30T11:36:25.367Z,10.75
2017-10-30T11:37:25.799Z,10.46
2017-10-30T11:38:26.230Z,10.46
2017-10-30T11:39:26.683Z,10.12
2017-10-30T11:40:27.097Z,10.09
2017-10-30T11:41:27.521Z,10.20
2017-10-30T11:42:27.953Z,9.98
2017-10-30T11:43:28.386Z,10.04
2017-10-30T11:44:28.843Z,9.99
2017-10-30T11:45:29.244Z,10.09
2017-10-30T11:46:29.674Z,9.89
2017-10-30T11:47:30.100Z,9.86
2017-10-30T11:48:30.532Z,10.04
2017-10-30T11:49:30.962Z,9.95
2017-10-30T11:50:31.388Z,9.77
2017-10-30T11:51:31.820Z,9.89
2017-10-30T11:52:32.243Z,9.94
2017-10-30T11:53:32.673Z,10.13
2017-10-30T11:54:33.099Z,10.22
2017-10-30T11:55:33.523Z,10.25
2017-10-30T11:56:33.967Z,10.31
2017-10-30T11:57:34.380Z,10.35
2017-10-30T11:58:34.812Z,10.44
2017-10-30T11:59:35.238Z,10.35
2017-10-30T12:00:35.661Z,10.37
2017-10-30T12:01:36.092Z,10.38
2017-10-30T12:02:36.523Z,10.38
2017-10-30T12:03:36.948Z,10.37
2017-10-30T12:04:37.373Z,10.34
2017-10-30T12:05:37.803Z,10.46
2017-10-30T12:06:38.260Z,10.57
2017-10-30T12:07:38.666Z,10.40
2017-10-30T12:08:39.126Z,10.42
2017-10-30T12:09:39.564Z,10.35
2017-10-30T12:10:39.947Z,10.49
2017-10-30T12:11:40.384Z,10.51
2017-10-30T12:12:40.812Z,10.41
2017-10-30T12:13:41.227Z,10.63
2017-10-30T12:14:41.670Z,10.56
2017-10-30T12:15:42.087Z,10.42
2017-10-30T12:16:42.519Z,10.31
2017-10-30T12:17:42.975Z,10.48
2017-10-30T12:18:43.362Z,10.38
2017-10-30T12:19:43.788Z,10.41
2017-10-30T12:20:44.229Z,10.33
2017-10-30T12:21:44.680Z,10.30
2017-10-30T12:22:45.127Z,10.23
2017-10-30T12:23:45.514Z,10.25
2017-10-30T12:24:45.967Z,10.20
2017-10-30T12:25:46.357Z,10.20
2017-10-30T12:26:46.835Z,10.22
2017-10-30T12:27:47.209Z,10.22
2017-10-30T12:28:47.695Z,10.22
2017-10-30T12:29:48.111Z,10.10
2017-10-30T12:30:48.496Z,10.16
2017-10-30T12:31:48.932Z,10.22
2017-10-30T12:32:49.353Z,10.51
2017-10-30T12:33:49.771Z,10.44
2017-10-30T12:34:50.200Z,10.37
2017-10-30T12:35:50.634Z,10.34
2017-10-30T12:36:51.060Z,10.38
2017-10-30T12:37:51.485Z,10.34
2017-10-30T12:38:51.924Z,10.10
2017-10-30T12:39:52.344Z,10.12
2017-10-30T12:40:52.786Z,10.05
2017-10-30T12:41:53.192Z,9.68
2017-10-30T12:42:53.622Z,9.61
2017-10-30T12:43:54.045Z,9.72
2017-10-30T12:44:54.496Z,9.65
2017-10-30T12:45:54.924Z,9.72
2017-10-30T12:46:55.338Z,9.69
2017-10-30T12:47:55.769Z,9.69
2017-10-30T12:48:56.233Z,9.69
2017-10-30T12:49:56.659Z,9.79
2017-10-30T12:50:57.052Z,9.83
2017-10-30T12:51:57.466Z,9.68
2017-10-30T12:52:57.911Z,9.68
2017-10-30T12:53:58.338Z,9.68
2017-10-30T12:54:58.754Z,9.50
2017-10-30T12:55:59.205Z,9.74
2017-10-30T12:56:59.622Z,9.84
2017-10-30T12:58:00.039Z,9.68
2017-10-30T12:59:00.455Z,9.59
2017-10-30T13:00:00.896Z,9.64
2017-10-30T13:01:01.307Z,9.72
2017-10-30T13:02:01.728Z,9.56
2017-10-30T13:03:02.153Z,9.59
2017-10-30T13:04:02.649Z,9.47
2017-10-30T13:05:03.002Z,9.59
2017-10-30T13:06:03.500Z,9.41
2017-10-30T13:07:03.868Z,9.26
2017-10-30T13:08:04.285Z,9.32
2017-10-30T13:09:04.718Z,9.19
2017-10-30T13:10:05.139Z,9.26
2017-10-30T13:11:05.583Z,9.31
2017-10-30T13:12:06.004Z,9.08
2017-10-30T13:13:06.427Z,9.08
2017-10-30T13:14:06.844Z,9.04
2017-10-30T13:15:07.299Z,9.06
2017-10-30T13:16:07.696Z,9.04
2017-10-30T13:17:08.129Z,8.89
2017-10-30T13:18:08.561Z,9.06